Time;durP1;ratioP1;P1;durP2;ratioP2;P2;SDS_P1;SDS_P2;PMS_P1;PMS_P2;Temp;Humidity;BMP_temperature;BMP_pressure;BME280_temperature;BME280_humidity;BME280_pressure;Samples;Min_cycle;Max_cycle;Signal;HPM_P1;HPM_P2
2022/04/12 00:01:04;;;;;;;;;;;6.90;99.90;;;6.25;88.10;96973.47;5053888;28;19965;-55
2022/04/12 00:03:30;;;;;;;;;;;6.80;99.90;;;6.18;89.40;96972.78;5060293;28;19920;-55
2022/04/12 00:05:56;;;;;;;;;;;6.80;99.90;;;6.11;90.30;96963.38;5054251;28;19940;-55
2022/04/12 00:08:21;;;;;;;;;;;6.70;99.90;;;6.04;90.95;96962.66;5059728;28;20896;-55
2022/04/12 00:10:47;;;;;;;;;;;6.60;99.90;;;5.99;92.09;96961.06;5048209;28;19934;-55
2022/04/12 00:13:13;;;;;;;;;;;6.60;99.90;;;5.87;91.87;96952.59;5051209;28;20007;-54
2022/04/12 00:15:39;;;;;;;;;;;6.50;99.90;;;5.89;91.62;96961.28;5054471;28;20410;-53
2022/04/12 00:20:49;;;;;;;;;;;6.50;99.90;;;5.89;91.35;96969.13;5045379;28;20023;-57
2022/04/12 00:23:16;;;;;;;;;;;6.50;99.90;;;5.83;91.63;96957.94;5049033;28;19994;-57
2022/04/12 00:25:45;;;;;;;;;;;6.50;99.90;;;5.86;91.80;96971.81;5047334;28;20019;-55
2022/04/12 00:28:11;;;;;;;;;;;6.50;99.90;;;5.85;91.76;96961.38;5050145;28;19924;-52
2022/04/12 00:30:37;;;;;;;;;;;6.40;99.90;;;5.82;92.21;96958.84;5048986;28;20016;-55
2022/04/12 00:33:03;;;;;;;;;;;6.40;99.90;;;5.84;92.47;96964.91;5047585;28;19920;-57
2022/04/12 00:35:29;;;;;;;;;;;6.40;99.90;;;5.81;93.10;96968.44;5051089;28;20379;-57
2022/04/12 00:37:55;;;;;;;;;;;6.40;99.90;;;5.78;93.25;96963.31;5044196;28;19931;-57
2022/04/12 00:40:24;;;;;;;;;;;6.40;99.90;;;5.78;93.32;96958.06;5052781;22;19939;-64
2022/04/12 00:42:50;;;;;;;;;;;6.40;99.90;;;5.81;93.45;96960.59;5028677;28;23538;-65
2022/04/12 00:45:16;;;;;;;;;;;6.40;99.90;;;5.77;94.06;96961.56;5028335;28;20392;-65
2022/04/12 00:47:42;;;;;;;;;;;6.30;99.90;;;5.79;93.53;96969.38;5026129;28;19932;-65
2022/04/12 00:50:09;;;;;;;;;;;6.40;99.90;;;5.80;93.00;96964.13;5043357;28;21567;-65
2022/04/12 00:52:36;;;;;;;;;;;6.40;99.90;;;5.84;92.32;96971.00;5028017;28;19967;-65
2022/04/12 00:55:06;;;;;;;;;;;6.40;99.90;;;5.84;92.39;96962.28;5030235;28;19921;-65
2022/04/12 00:57:32;;;;;;;;;;;6.40;99.90;;;5.83;92.23;96960.56;5031488;28;20444;-65
2022/04/12 00:59:59;;;;;;;;;;;6.40;99.90;;;5.85;92.06;96962.25;5027968;28;19931;-65
2022/04/12 01:02:26;;;;;;;;;;;6.40;99.90;;;5.81;92.90;96960.59;5030272;28;19924;-65
2022/04/12 01:04:52;;;;;;;;;;;6.40;99.90;;;5.80;92.79;96963.28;5027427;28;20372;-65
2022/04/12 01:07:18;;;;;;;;;;;6.40;99.90;;;5.81;92.33;96954.50;5030173;28;19924;-65
2022/04/12 01:09:44;;;;;;;;;;;6.40;99.90;;;5.80;91.94;96960.66;5030996;28;19928;-65
2022/04/12 01:12:11;;;;;;;;;;;6.40;99.90;;;5.76;92.62;96953.75;5030025;28;19931;-65
2022/04/12 01:14:37;;;;;;;;;;;6.40;99.90;;;5.70;93.37;96949.53;5051321;28;20032;-65
2022/04/12 01:17:07;;;;;;;;;;;6.30;99.90;;;5.66;93.61;96947.91;5028232;28;19986;-65
2022/04/12 01:19:33;;;;;;;;;;;6.30;99.90;;;5.61;94.68;96949.78;5034912;28;19925;-65
2022/04/12 01:22:03;;;;;;;;;;;6.20;99.90;;;5.58;95.23;96949.84;5025947;28;19925;-65
2022/04/12 01:24:30;;;;;;;;;;;6.20;99.90;;;5.54;95.17;96947.31;5029400;28;19921;-65
2022/04/12 01:26:56;;;;;;;;;;;6.20;99.90;;;5.53;94.61;96942.97;5025633;28;19924;-65
2022/04/12 01:29:23;;;;;;;;;;;6.20;99.90;;;5.53;94.33;96940.34;5030795;28;19920;-65
2022/04/12 01:31:48;;;;;;;;;;;6.10;99.90;;;5.55;93.66;96945.56;5029267;28;19928;-65
2022/04/12 01:34:14;;;;;;;;;;;6.10;99.90;;;5.54;94.21;96941.19;5030803;28;19920;-65
2022/04/12 01:36:40;;;;;;;;;;;6.10;99.90;;;5.49;94.44;96940.44;5030068;28;19932;-65
2022/04/12 01:39:05;;;;;;;;;;;6.10;99.90;;;5.46;95.37;96954.47;5028340;28;19969;-65
2022/04/12 01:41:31;;;;;;;;;;;6.10;99.90;;;5.43;95.77;96953.69;5029357;28;19933;-65
2022/04/12 01:43:57;;;;;;;;;;;6.00;99.90;;;5.43;95.46;96953.69;5029796;28;19921;-65
2022/04/12 01:46:22;;;;;;;;;;;6.00;99.90;;;5.40;95.73;96954.63;5028801;28;19924;-65
2022/04/12 01:48:49;;;;;;;;;;;6.00;99.90;;;5.32;96.46;96943.47;5025256;28;20376;-65
2022/04/12 01:51:15;;;;;;;;;;;6.00;99.90;;;5.30;97.54;96953.97;5034039;28;20039;-65
2022/04/12 01:53:41;;;;;;;;;;;5.90;99.90;;;5.24;98.18;96948.91;5029978;28;19917;-65
2022/04/12 01:56:06;;;;;;;;;;;5.90;99.90;;;5.20;98.63;96939.38;5028499;28;20245;-65
2022/04/12 01:58:32;;;;;;;;;;;5.80;99.90;;;5.14;98.96;96943.00;5029495;28;19943;-65
2022/04/12 02:00:59;;;;;;;;;;;5.80;99.90;;;5.14;98.42;96944.75;5030245;28;20007;-65
2022/04/12 02:03:24;;;;;;;;;;;5.80;99.90;;;5.15;98.59;96949.06;5025763;28;20432;-65
2022/04/12 02:05:51;;;;;;;;;;;5.80;99.90;;;5.12;98.62;96944.78;5031448;28;20534;-65
2022/04/12 02:08:17;;;;;;;;;;;5.80;99.90;;;5.14;97.97;96940.38;5030406;28;20746;-65
2022/04/12 02:10:43;;;;;;;;;;;5.70;99.90;;;5.17;98.01;96944.69;5029675;28;19947;-65
2022/04/12 02:13:09;;;;;;;;;;;5.70;99.90;;;5.11;98.58;96939.59;5027693;28;20464;-65
2022/04/12 02:15:34;;;;;;;;;;;5.70;99.90;;;5.13;98.58;96946.53;5034308;28;19921;-65
2022/04/12 02:18:00;;;;;;;;;;;5.70;99.90;;;5.08;99.26;96940.53;5032910;28;20270;-65
2022/04/12 02:20:26;;;;;;;;;;;5.70;99.90;;;4.89;99.82;96913.09;5032455;28;20306;-65
2022/04/12 02:22:51;;;;;;;;;;;5.70;99.90;;;4.97;100.00;96932.94;5034663;28;19955;-65
2022/04/12 02:25:17;;;;;;;;;;;5.60;99.90;;;4.92;100.00;96931.31;5033857;28;19925;-64
2022/04/12 02:27:42;;;;;;;;;;;5.50;99.90;;;4.89;100.00;96932.22;5030538;28;19979;-65
2022/04/12 02:30:09;;;;;;;;;;;5.60;99.90;;;4.89;100.00;96932.22;5027588;28;19928;-65
2022/04/12 02:32:34;;;;;;;;;;;5.50;99.90;;;4.83;100.00;96928.88;5031434;28;19931;-64
2022/04/12 02:35:00;;;;;;;;;;;5.50;99.90;;;4.76;100.00;96926.41;5033357;28;19917;-65
2022/04/12 02:37:29;;;;;;;;;;;5.40;99.90;;;4.80;100.00;96935.03;5036891;28;19924;-64
2022/04/12 02:39:54;;;;;;;;;;;5.40;99.90;;;4.65;100.00;96915.34;5033231;28;19970;-64
2022/04/12 02:42:20;;;;;;;;;;;5.40;99.90;;;4.77;100.00;96932.50;5033133;28;19921;-64
2022/04/12 02:44:46;;;;;;;;;;;5.40;99.90;;;4.75;100.00;96931.66;5030760;28;20315;-64
2022/04/12 02:47:11;;;;;;;;;;;5.30;99.90;;;4.71;100.00;96930.03;5033972;28;20387;-64
2022/04/12 02:49:37;;;;;;;;;;;5.30;99.90;;;4.67;100.00;96931.00;5034290;28;19960;-64
2022/04/12 02:52:03;;;;;;;;;;;5.30;99.90;;;4.63;100.00;96937.16;5028903;28;20031;-64
2022/04/12 02:54:28;;;;;;;;;;;5.30;99.90;;;4.61;100.00;96933.72;5034360;28;19970;-64
2022/04/12 02:56:54;;;;;;;;;;;5.20;99.90;;;4.57;100.00;96930.31;5027802;28;19952;-64
2022/04/12 02:59:19;;;;;;;;;;;5.20;99.90;;;4.52;100.00;96921.69;5036598;28;19932;-64
2022/04/12 03:01:45;;;;;;;;;;;5.20;99.90;;;4.48;100.00;96920.06;5031794;28;19952;-65
2022/04/12 03:04:11;;;;;;;;;;;5.10;99.90;;;4.43;100.00;96924.50;5033474;28;20439;-65
2022/04/12 03:06:36;;;;;;;;;;;5.00;99.90;;;4.39;100.00;96923.69;5030031;28;20303;-65
2022/04/12 03:09:02;;;;;;;;;;;5.00;99.90;;;4.34;100.00;96917.72;5028422;28;19968;-65
2022/04/12 03:11:28;;;;;;;;;;;5.00;99.90;;;4.36;100.00;96918.53;5026738;28;19939;-65
2022/04/12 03:13:54;;;;;;;;;;;5.00;99.90;;;4.36;100.00;96928.97;5031817;28;19924;-65
2022/04/12 03:16:19;;;;;;;;;;;5.00;99.90;;;4.35;100.00;96919.44;5020831;28;20269;-64
2022/04/12 03:18:45;;;;;;;;;;;5.00;99.90;;;4.33;100.00;96918.63;5028532;28;20299;-65
2022/04/12 03:21:10;;;;;;;;;;;5.00;99.90;;;4.32;100.00;96915.13;5027353;28;20343;-65
2022/04/12 03:23:36;;;;;;;;;;;5.00;99.90;;;4.27;100.00;96906.56;5033675;28;20399;-65
2022/04/12 03:26:02;;;;;;;;;;;5.00;99.90;;;4.30;100.00;96909.06;5029043;28;19959;-65
2022/04/12 03:28:28;;;;;;;;;;;5.00;99.90;;;4.29;100.00;96902.16;5024165;28;19952;-65
2022/04/12 03:30:54;;;;;;;;;;;5.00;99.90;;;4.30;100.00;96913.44;5024939;28;21117;-65
2022/04/12 03:33:19;;;;;;;;;;;5.00;99.90;;;4.25;100.00;96910.06;5023834;28;19956;-65
2022/04/12 03:35:45;;;;;;;;;;;5.00;99.90;;;4.26;100.00;96910.03;5028587;28;19928;-65
2022/04/12 03:38:13;;;;;;;;;;;5.00;99.90;;;4.26;100.00;96917.88;5026864;28;19947;-65
2022/04/12 03:40:39;;;;;;;;;;;4.90;99.90;;;4.29;100.00;96925.66;5025883;28;19917;-65
2022/04/12 03:43:05;;;;;;;;;;;5.00;99.90;;;4.32;100.00;96927.31;5028713;28;19921;-65
2022/04/12 03:45:31;;;;;;;;;;;4.90;99.90;;;4.30;100.00;96918.66;5031747;28;19956;-65
2022/04/12 03:47:57;;;;;;;;;;;4.90;99.90;;;4.29;100.00;96925.66;5031722;28;20456;-65
2022/04/12 03:50:23;;;;;;;;;;;4.90;99.90;;;4.27;100.00;96921.34;5034159;28;20023;-65
2022/04/12 03:52:50;;;;;;;;;;;4.90;99.90;;;4.24;100.00;96917.03;5029150;28;19925;-65
2022/04/12 03:55:30;;;;;;;;;;;4.80;99.90;;;4.23;100.00;96917.06;5028814;28;19975;-65
2022/04/12 03:58:00;;;;;;;;;;;4.90;99.90;;;4.20;100.00;96915.41;5025896;28;20058;-65
2022/04/12 04:00:26;;;;;;;;;;;4.80;99.90;;;4.16;100.00;96917.19;5028900;28;19924;-65
2022/04/12 04:02:52;;;;;;;;;;;4.80;99.90;;;4.15;100.00;96910.25;5028530;28;19950;-65
2022/04/12 04:05:18;;;;;;;;;;;4.80;99.90;;;4.13;100.00;96911.19;5027206;28;19925;-65
2022/04/12 04:07:43;;;;;;;;;;;4.80;99.90;;;4.14;100.00;96907.66;5033380;28;19924;-65
2022/04/12 04:10:09;;;;;;;;;;;4.70;99.90;;;4.14;100.00;96910.28;5023873;28;20416;-65
2022/04/12 04:12:34;;;;;;;;;;;4.80;99.90;;;4.15;100.00;96915.47;5032174;28;20479;-65
2022/04/12 04:15:00;;;;;;;;;;;4.80;99.90;;;4.15;100.00;96914.63;5032732;28;19924;-65
2022/04/12 04:17:26;;;;;;;;;;;4.80;99.90;;;4.14;100.00;96911.13;5033667;28;19927;-65
2022/04/12 04:19:52;;;;;;;;;;;4.80;99.90;;;4.14;100.00;96908.50;5032246;28;19920;-65
2022/04/12 04:22:17;;;;;;;;;;;4.80;99.90;;;4.12;100.00;96906.84;5038449;28;19967;-65
2022/04/12 04:24:43;;;;;;;;;;;4.80;99.90;;;4.12;100.00;96910.28;5035559;28;19916;-65
2022/04/12 04:27:09;;;;;;;;;;;4.80;99.90;;;4.03;100.00;96904.41;5034059;28;19928;-65
2022/04/12 04:29:35;;;;;;;;;;;4.80;99.90;;;4.11;100.00;96913.81;5029834;28;19921;-65
2022/04/12 04:32:01;;;;;;;;;;;4.80;99.90;;;4.13;100.00;96917.25;5027494;28;19931;-65
2022/04/12 04:34:27;;;;;;;;;;;4.80;99.90;;;4.14;100.00;96911.13;5034059;28;19925;-65
2022/04/12 04:36:52;;;;;;;;;;;4.80;99.90;;;4.15;100.00;96912.84;5022574;28;19955;-65
2022/04/12 04:39:18;;;;;;;;;;;4.80;99.90;;;4.07;100.00;96904.31;5025635;28;19968;-65
2022/04/12 04:41:43;;;;;;;;;;;4.80;99.90;;;4.13;100.00;96919.84;5019366;28;20511;-65
2022/04/12 04:44:09;;;;;;;;;;;4.80;99.90;;;4.11;100.00;96911.19;5033936;28;19925;-65
2022/04/12 04:46:35;;;;;;;;;;;4.70;99.90;;;4.11;100.00;96923.38;5034635;28;19982;-64
2022/04/12 04:49:00;;;;;;;;;;;4.70;99.90;;;4.06;100.00;96918.25;5036257;28;19940;-64
2022/04/12 04:51:26;;;;;;;;;;;4.70;99.90;;;4.09;100.00;96914.72;5040289;28;19975;-64
2022/04/12 04:53:58;;;;;;;;;;;4.70;99.90;;;4.08;100.00;96913.00;5036628;28;20825;-64
2022/04/12 04:56:27;;;;;;;;;;;4.70;99.90;;;4.04;100.00;96904.38;5035046;28;19940;-64
2022/04/12 04:58:53;;;;;;;;;;;4.70;99.90;;;4.12;100.00;96914.66;5034580;28;19924;-64
2022/04/12 05:01:20;;;;;;;;;;;4.70;99.90;;;4.15;100.00;96918.06;5034753;28;19921;-64
2022/04/12 05:03:47;;;;;;;;;;;4.80;99.90;;;4.12;100.00;96891.19;5034915;28;19928;-64
2022/04/12 05:06:13;;;;;;;;;;;4.80;99.90;;;4.22;100.00;96911.00;5037423;28;20384;-64
2022/04/12 05:08:39;;;;;;;;;;;4.90;99.90;;;4.26;100.00;96911.78;5038458;28;20444;-64
2022/04/12 05:11:04;;;;;;;;;;;4.90;99.90;;;4.31;100.00;96908.19;5038679;28;20015;-64
2022/04/12 05:13:30;;;;;;;;;;;5.00;99.90;;;4.36;100.00;96919.41;5039389;28;19921;-64
2022/04/12 05:15:56;;;;;;;;;;;5.00;99.90;;;4.41;100.00;96916.69;5033645;28;19924;-64
2022/04/12 05:18:21;;;;;;;;;;;5.00;99.90;;;4.41;100.00;96911.47;5035435;28;20405;-64
2022/04/12 05:20:47;;;;;;;;;;;5.10;99.90;;;4.53;100.00;96918.22;5037588;28;20486;-64
2022/04/12 05:23:12;;;;;;;;;;;5.10;99.90;;;4.57;100.00;96920.72;5041544;28;20419;-65
2022/04/12 05:25:38;;;;;;;;;;;5.20;99.90;;;4.66;100.00;96905.75;5039980;28;20147;-65
2022/04/12 05:28:04;;;;;;;;;;;5.30;99.90;;;4.71;100.00;96915.19;5039390;28;19982;-64
2022/04/12 05:30:30;;;;;;;;;;;5.30;99.90;;;4.78;100.00;96918.56;5036690;28;20300;-64
2022/04/12 05:32:56;;;;;;;;;;;5.40;99.90;;;4.83;100.00;96916.69;5038481;28;19925;-64
2022/04/12 05:35:21;;;;;;;;;;;5.40;99.90;;;4.92;100.00;96920.88;5036274;28;19932;-64
2022/04/12 05:37:48;;;;;;;;;;;5.50;99.90;;;5.03;100.00;96924.09;5038321;28;19925;-64
2022/04/12 05:40:15;;;;;;;;;;;5.60;99.90;;;5.14;100.00;96929.94;5035817;28;20087;-64
2022/04/12 05:42:41;;;;;;;;;;;5.70;99.90;;;5.22;100.00;96928.88;5036293;28;19924;-64
2022/04/12 05:45:08;;;;;;;;;;;5.80;99.90;;;5.34;100.00;96931.22;5035987;28;19975;-64
2022/04/12 05:47:40;;;;;;;;;;;5.90;99.90;;;5.44;100.00;96935.34;5031927;28;22282;-64
2022/04/12 05:50:06;;;;;;;;;;;6.00;99.90;;;5.51;100.00;96942.16;5036184;28;20108;-64
2022/04/12 05:52:32;;;;;;;;;;;6.10;99.90;;;5.61;100.00;96941.91;5028062;28;20534;-64
2022/04/12 05:54:58;;;;;;;;;;;6.20;99.90;;;5.68;100.00;96940.88;5031485;28;20388;-64
2022/04/12 05:57:24;;;;;;;;;;;6.30;99.90;;;5.78;100.00;96937.13;5033686;28;20008;-64
2022/04/12 05:59:49;;;;;;;;;;;6.30;99.90;;;5.90;100.00;96949.03;5031100;28;19916;-63
2022/04/12 06:02:15;;;;;;;;;;;6.40;99.90;;;6.02;100.00;96958.38;5027349;28;20025;-64
2022/04/12 06:04:40;;;;;;;;;;;6.60;99.90;;;6.12;100.00;96954.63;5033032;28;19921;-63
2022/04/12 06:07:06;;;;;;;;;;;6.70;99.90;;;6.25;99.10;96955.16;5035111;28;19968;-64
2022/04/12 06:09:32;;;;;;;;;;;6.80;99.90;;;6.39;97.99;96949.53;5033709;28;20224;-63
2022/04/12 06:11:57;;;;;;;;;;;6.90;99.90;;;6.53;97.28;96950.00;5032452;28;19925;-64
2022/04/12 06:14:23;;;;;;;;;;;7.10;99.90;;;6.67;96.17;96939.97;5031015;28;19968;-66
2022/04/12 06:16:48;;;;;;;;;;;7.20;99.90;;;6.79;95.09;96927.44;5035745;28;19921;-66
2022/04/12 06:19:14;;;;;;;;;;;7.30;99.90;;;6.97;92.55;96931.28;5032045;28;20399;-66
2022/04/12 06:21:40;;;;;;;;;;;7.50;99.90;;;7.14;92.08;96933.38;5033014;28;19966;-66
2022/04/12 06:24:05;;;;;;;;;;;7.70;99.90;;;7.27;90.48;96934.75;5034049;28;20003;-67
2022/04/12 06:26:31;;;;;;;;;;;7.80;99.90;;;7.40;89.27;96922.94;5033188;28;20152;-66
2022/04/12 06:28:57;;;;;;;;;;;7.90;99.90;;;7.50;87.08;96918.25;5032159;28;19978;-66
2022/04/12 06:31:22;;;;;;;;;;;8.10;99.90;;;7.59;85.56;96927.59;5035690;28;19921;-66
2022/04/12 06:33:48;;;;;;;;;;;8.20;99.90;;;7.66;85.56;96934.34;5030769;28;19956;-66
2022/04/12 06:36:13;;;;;;;;;;;8.20;99.90;;;7.77;84.06;96940.13;5035933;28;19932;-66
2022/04/12 06:38:39;;;;;;;;;;;8.30;99.90;;;7.84;83.74;96949.50;5033294;28;20015;-66
2022/04/12 06:41:05;;;;;;;;;;;8.40;99.90;;;7.91;83.16;96944.88;5076447;22;19955;-50
2022/04/12 06:43:30;;;;;;;;;;;8.50;99.90;;;7.98;82.20;96941.16;5072896;28;19924;-46
2022/04/12 06:45:56;;;;;;;;;;;8.50;99.90;;;8.11;81.67;96936.34;5070930;28;19920;-50
2022/04/12 06:48:21;;;;;;;;;;;8.60;99.90;;;8.20;81.35;96943.91;5072796;28;20599;-49
2022/04/12 06:50:47;;;;;;;;;;;8.70;99.90;;;8.34;80.91;96943.41;5054247;28;19925;-48
2022/04/12 06:53:13;;;;;;;;;;;8.90;99.90;;;8.49;80.02;96934.19;5044388;28;19933;-49
2022/04/12 06:55:38;;;;;;;;;;;9.00;99.90;;;8.64;78.91;96942.41;5048938;28;20422;-51
2022/04/12 06:58:04;;;;;;;;;;;9.20;99.90;;;8.76;78.27;96936.72;5047543;28;19979;-47
2022/04/12 07:00:29;;;;;;;;;;;9.30;99.90;;;8.90;77.70;96931.78;5045547;28;19921;-51
2022/04/12 07:02:55;;;;;;;;;;;9.40;99.90;;;9.03;74.74;96934.81;5048957;28;19924;-48
2022/04/12 07:05:21;;;;;;;;;;;9.60;99.90;;;9.18;75.01;96938.63;5042844;28;20712;-49
2022/04/12 07:07:46;;;;;;;;;;;9.70;99.90;;;9.35;73.65;96932.72;5047632;28;19931;-49
2022/04/12 07:10:14;;;;;;;;;;;9.80;99.90;;;9.45;71.20;96930.56;5044273;28;19923;-47
2022/04/12 07:12:40;;;;;;;;;;;9.90;99.90;;;9.57;70.90;96930.06;5045450;28;19931;-49
2022/04/12 07:15:07;;;;;;;;;;;10.10;99.90;;;9.68;69.89;96927.84;5045614;28;20482;-48
2022/04/12 07:17:32;;;;;;;;;;;10.20;99.90;;;9.78;68.07;96933.63;5045713;28;19920;-47
2022/04/12 07:19:58;;;;;;;;;;;10.30;99.90;;;9.92;68.28;96939.16;5049536;28;19917;-50
2022/04/12 07:22:24;;;;;;;;;;;10.40;99.90;;;10.06;66.67;96937.72;5044601;28;19964;-49
2022/04/12 07:24:50;;;;;;;;;;;10.50;99.90;;;10.13;67.26;96936.53;5050139;28;19916;-47
2022/04/12 07:27:15;;;;;;;;;;;10.60;99.90;;;10.26;67.00;96944.78;5048791;28;19916;-47
2022/04/12 07:29:41;;;;;;;;;;;10.70;99.90;;;10.31;66.34;96942.84;5048741;28;19932;-46
2022/04/12 07:32:07;;;;;;;;;;;10.80;99.90;;;10.40;66.20;96934.53;5043812;28;20027;-46
2022/04/12 07:34:33;;;;;;;;;;;10.90;99.90;;;10.49;64.67;96931.47;5047701;28;19982;-50
2022/04/12 07:36:58;;;;;;;;;;;11.00;99.90;;;10.60;63.98;96933.63;5049886;28;19916;-48
2022/04/12 07:39:24;;;;;;;;;;;11.10;99.90;;;10.67;63.51;96931.59;5047279;28;19932;-49
2022/04/12 07:41:51;;;;;;;;;;;11.10;99.90;;;10.81;63.21;96930.97;5047172;28;20311;-48
2022/04/12 07:44:18;;;;;;;;;;;11.20;99.90;;;10.92;62.36;96931.34;5047602;28;19938;-47
2022/04/12 07:46:44;;;;;;;;;;;11.40;99.90;;;11.05;62.65;96927.22;5045501;28;19920;-48
2022/04/12 07:49:10;;;;;;;;;;;11.50;99.90;;;11.20;61.08;96938.00;5050072;28;20423;-47
2022/04/12 07:51:37;;;;;;;;;;;11.70;99.90;;;11.38;60.80;96933.63;5044499;28;19975;-50
2022/04/12 07:54:03;;;;;;;;;;;11.80;99.90;;;11.51;57.93;96931.25;5049713;28;20398;-47
2022/04/12 07:56:29;;;;;;;;;;;12.00;99.90;;;11.69;58.56;96945.34;5049493;28;19927;-47
2022/04/12 07:58:55;;;;;;;;;;;12.10;99.90;;;11.90;58.61;96948.69;5050971;28;19925;-50
2022/04/12 08:01:21;;;;;;;;;;;12.40;99.90;;;12.03;56.38;96947.22;5049604;28;19917;-51
2022/04/12 08:03:47;;;;;;;;;;;12.50;99.90;;;12.17;55.55;96949.16;5045509;28;19928;-49
2022/04/12 08:06:12;;;;;;;;;;;12.60;99.90;;;12.32;55.93;96951.03;5050209;28;19924;-50
2022/04/12 08:08:38;;;;;;;;;;;12.80;99.90;;;12.45;54.96;96951.25;5050195;28;20389;-49
2022/04/12 08:11:04;;;;;;;;;;;12.90;99.90;;;12.67;54.70;96955.41;5047803;28;19931;-49
2022/04/12 08:13:30;;;;;;;;;;;13.10;99.90;;;12.80;53.75;96949.41;5045532;28;19952;-48
2022/04/12 08:15:56;;;;;;;;;;;13.30;99.90;;;13.05;52.21;96956.03;5049031;28;20016;-49
2022/04/12 08:18:22;;;;;;;;;;;13.50;99.60;;;13.24;52.00;96955.03;5053362;28;19943;-48
2022/04/12 08:20:49;;;;;;;;;;;13.60;99.10;;;13.39;52.02;96954.22;5050774;28;19970;-45
2022/04/12 08:23:16;;;;;;;;;;;13.80;98.90;;;13.59;50.60;96949.63;5051029;28;19925;-46
2022/04/12 08:25:42;;;;;;;;;;;14.00;98.40;;;13.69;51.65;96950.78;5052898;28;19920;-49
2022/04/12 08:28:08;;;;;;;;;;;14.10;98.00;;;13.73;49.85;96952.34;5045701;28;21518;-46
2022/04/12 08:30:34;;;;;;;;;;;14.20;97.00;;;13.83;50.74;96945.56;5049136;28;20173;-47
2022/04/12 08:33:01;;;;;;;;;;;14.30;97.50;;;13.90;49.54;96946.91;5051004;28;19920;-48
2022/04/12 08:35:27;;;;;;;;;;;14.30;96.40;;;14.03;50.65;96941.78;5048063;28;19970;-47
2022/04/12 08:37:53;;;;;;;;;;;14.50;96.80;;;14.17;50.17;96943.59;5052493;28;20360;-48
2022/04/12 08:40:19;;;;;;;;;;;14.60;96.40;;;14.38;48.04;96948.59;5044700;28;19930;-46
2022/04/12 08:42:45;;;;;;;;;;;14.80;95.30;;;14.61;48.00;96940.16;5047385;28;19979;-46
2022/04/12 08:45:11;;;;;;;;;;;15.10;94.90;;;14.83;47.47;96929.06;5050901;28;20348;-47
2022/04/12 08:47:36;;;;;;;;;;;15.30;93.90;;;15.08;47.14;96931.03;5049352;28;19932;-47
2022/04/12 08:50:04;;;;;;;;;;;15.50;93.90;;;15.34;46.14;96931.19;5050211;28;20407;-47
2022/04/12 08:52:30;;;;;;;;;;;15.70;93.00;;;15.48;46.54;96932.97;5052166;28;20372;-46
2022/04/12 08:54:56;;;;;;;;;;;15.90;92.80;;;15.62;45.29;96927.63;5048355;28;19924;-45
2022/04/12 08:57:21;;;;;;;;;;;16.10;92.00;;;15.67;44.61;96932.66;5048674;28;19954;-47
2022/04/12 08:59:48;;;;;;;;;;;16.10;90.70;;;15.75;44.49;96932.19;5051274;28;20023;-49
2022/04/12 09:02:13;;;;;;;;;;;16.20;90.80;;;15.80;44.76;96916.78;5048062;28;19929;-47
2022/04/12 09:04:39;;;;;;;;;;;16.20;90.70;;;15.92;45.08;96939.06;5049121;28;19962;-48
2022/04/12 09:07:09;;;;;;;;;;;16.30;91.00;;;15.90;44.51;96939.16;5046566;28;20346;-49
2022/04/12 09:09:35;;;;;;;;;;;16.20;90.20;;;15.91;44.70;96932.03;5050266;28;19981;-46
2022/04/12 09:12:12;;;;;;;;;;;16.20;90.20;;;15.87;45.07;96935.84;5048034;28;20316;-47
2022/04/12 09:14:52;;;;;;;;;;;16.20;90.30;;;15.79;44.94;96945.19;5047987;28;19932;-46
2022/04/12 09:17:30;;;;;;;;;;;16.10;90.10;;;15.68;45.28;96933.50;5045574;28;19985;-48
2022/04/12 09:19:56;;;;;;;;;;;16.10;90.00;;;15.70;45.47;96934.25;5048008;28;20471;-47
2022/04/12 09:22:23;;;;;;;;;;;16.00;90.30;;;15.77;45.53;96930.28;5044257;28;19921;-47
2022/04/12 09:24:59;;;;;;;;;;;16.10;90.20;;;15.87;44.96;96922.56;5048668;28;19920;-48
2022/04/12 09:27:27;;;;;;;;;;;16.30;89.60;;;16.01;43.89;96939.31;5047359;28;19929;-46
2022/04/12 09:29:57;;;;;;;;;;;16.40;88.50;;;16.14;44.45;96933.16;5047491;28;20055;-46
2022/04/12 09:32:25;;;;;;;;;;;16.50;87.70;;;16.29;44.53;96936.59;5046427;28;19931;-47
2022/04/12 09:34:51;;;;;;;;;;;16.60;88.00;;;16.38;44.37;96926.22;5031265;28;20334;-47
2022/04/12 09:37:24;;;;;;;;;;;16.80;87.60;;;16.44;42.36;96930.25;5048186;28;19928;-49
2022/04/12 09:39:59;;;;;;;;;;;16.80;84.30;;;16.52;43.12;96929.72;5046103;28;19917;-51
2022/04/12 09:42:43;;;;;;;;;;;16.90;84.20;;;16.70;43.27;96924.94;5046015;28;20403;-48
2022/04/12 09:45:19;;;;;;;;;;;17.00;85.40;;;16.69;40.84;96921.44;5049087;28;19917;-46
2022/04/12 09:47:46;;;;;;;;;;;17.10;81.90;;;16.70;40.81;96917.78;5046640;28;19925;-49
2022/04/12 09:50:12;;;;;;;;;;;17.10;80.10;;;16.81;41.43;96917.03;5048510;28;20015;-50
2022/04/12 09:52:38;;;;;;;;;;;17.10;81.10;;;16.87;41.87;96910.47;5049129;28;21224;-47
2022/04/12 09:55:06;;;;;;;;;;;17.20;81.40;;;16.89;40.26;96913.91;5028897;28;20752;-46
2022/04/12 09:57:32;;;;;;;;;;;17.30;79.40;;;17.00;40.57;96908.66;5043366;28;20058;-47
2022/04/12 09:59:58;;;;;;;;;;;17.30;79.40;;;17.02;39.56;96904.06;5051023;28;19927;-50
2022/04/12 10:02:27;;;;;;;;;;;17.40;77.00;;;17.03;40.90;96911.13;5043689;28;19921;-49
2022/04/12 10:04:54;;;;;;;;;;;17.40;78.90;;;17.03;40.29;96903.13;5048711;28;20416;-46
2022/04/12 10:07:21;;;;;;;;;;;17.40;77.80;;;17.08;40.28;96900.13;5047174;28;19943;-47
2022/04/12 10:09:49;;;;;;;;;;;17.40;77.90;;;17.11;40.86;96895.41;5049624;28;19924;-46
2022/04/12 10:12:15;;;;;;;;;;;17.40;78.10;;;17.12;41.09;96904.25;5049851;28;20398;-46
2022/04/12 10:14:41;;;;;;;;;;;17.50;79.40;;;17.14;41.84;96897.03;5045567;28;20011;-49
2022/04/12 10:17:07;;;;;;;;;;;17.50;79.20;;;17.24;41.63;96903.38;5048986;28;19982;-47
2022/04/12 10:19:33;;;;;;;;;;;17.50;79.40;;;17.22;41.09;96897.31;5030716;28;20007;-50
2022/04/12 10:21:59;;;;;;;;;;;17.60;78.30;;;17.16;40.70;96903.94;5046184;28;19935;-47
2022/04/12 10:24:27;;;;;;;;;;;17.60;78.30;;;17.29;41.28;96895.06;5051170;28;19970;-46
2022/04/12 10:26:54;;;;;;;;;;;17.60;77.90;;;17.27;41.90;96908.50;5043599;28;20012;-50
2022/04/12 10:29:20;;;;;;;;;;;17.60;78.80;;;17.24;41.85;96894.53;5046170;28;19925;-48
2022/04/12 10:32:00;;;;;;;;;;;17.60;79.00;;;17.22;41.20;96896.47;5052132;28;20423;-47
2022/04/12 10:34:26;;;;;;;;;;;17.60;77.30;;;17.13;41.38;96892.66;5053073;28;19924;-46
2022/04/12 10:36:56;;;;;;;;;;;17.50;77.70;;;17.18;41.01;96893.19;5052315;28;19920;-50
2022/04/12 10:39:26;;;;;;;;;;;17.50;77.80;;;17.17;40.94;96897.66;5046302;28;20297;-46
2022/04/12 10:41:54;;;;;;;;;;;17.50;77.60;;;17.21;39.77;96892.97;5047779;28;19920;-46
2022/04/12 10:44:20;;;;;;;;;;;17.50;75.10;;;17.24;39.57;96890.06;5047168;28;20454;-48
2022/04/12 10:46:47;;;;;;;;;;;17.50;74.30;;;17.27;40.78;96881.84;5041916;28;20035;-46
2022/04/12 10:49:17;;;;;;;;;;;17.60;75.80;;;17.30;40.29;96872.78;5048055;28;19920;-45
2022/04/12 10:51:44;;;;;;;;;;;17.60;75.70;;;17.49;39.27;96877.63;5049544;28;20372;-46
2022/04/12 10:54:33;;;;;;;;;;;17.80;72.80;;;17.62;38.91;96881.13;5047347;28;20411;-45
2022/04/12 10:57:17;;;;;;;;;;;17.90;73.00;;;17.80;39.34;96873.56;5049816;28;19943;-49
2022/04/12 11:00:03;;;;;;;;;;;18.00;72.00;;;17.91;38.34;96870.97;5042404;28;19942;-46
2022/04/12 11:02:31;;;;;;;;;;;18.20;71.60;;;18.00;38.00;96858.75;5047540;28;19924;-49
2022/04/12 11:04:57;;;;;;;;;;;18.30;70.80;;;18.26;37.42;96853.25;5035839;28;19921;-46
2022/04/12 11:07:34;;;;;;;;;;;18.50;70.00;;;18.51;37.50;96844.19;5044047;28;20439;-50
2022/04/12 11:10:07;;;;;;;;;;;18.80;70.10;;;18.70;37.86;96855.13;5049879;28;19928;-48
2022/04/12 11:12:45;;;;;;;;;;;19.00;70.30;;;18.83;37.18;96855.03;5049592;28;19964;-50
2022/04/12 11:15:28;;;;;;;;;;;19.20;68.80;;;19.04;35.67;96849.81;5045259;28;19917;-46
2022/04/12 11:18:23;;;;;;;;;;;19.30;67.00;;;19.23;35.77;96846.50;5049323;28;20185;-47
2022/04/12 11:21:02;;;;;;;;;;;19.50;66.00;;;19.35;35.02;96842.00;5041757;28;19930;-48
2022/04/12 11:23:59;;;;;;;;;;;19.60;64.90;;;19.50;34.71;96841.72;5047890;28;19921;-47
2022/04/12 11:26:26;;;;;;;;;;;19.80;63.80;;;19.63;35.01;96840.59;5039724;28;20022;-46